createdAt,value
2022-08-08T00:00:55.976Z,4.75
2022-08-08T00:03:31.539Z,4.20
2022-08-08T00:06:09.507Z,4.33
2022-08-08T00:08:59.281Z,4.42
2022-08-08T00:12:02.976Z,4.90
2022-08-08T00:14:59.484Z,4.22
2022-08-08T00:18:02.712Z,5.25
2022-08-08T00:20:45.806Z,4.90
2022-08-08T00:23:47.825Z,4.53
2022-08-08T00:26:30.072Z,4.53
2022-08-08T00:29:45.471Z,4.70
2022-08-08T00:32:35.024Z,4.47
2022-08-08T00:35:20.978Z,5.05
2022-08-08T00:38:31.237Z,4.40
2022-08-08T00:41:54.954Z,5.08
2022-08-08T00:44:42.117Z,4.22
2022-08-08T00:48:02.153Z,4.65
2022-08-08T00:50:52.453Z,4.92
2022-08-08T00:53:57.202Z,4.85
2022-08-08T00:56:16.251Z,3.87
2022-08-08T00:59:44.653Z,4.42
2022-08-08T01:03:16.042Z,4.25
2022-08-08T01:05:42.021Z,4.28
2022-08-08T01:08:03.739Z,4.25
2022-08-08T01:10:49.745Z,4.33
2022-08-08T01:14:16.200Z,4.22
2022-08-08T01:17:17.620Z,4.28
2022-08-08T01:20:03.106Z,4.45
2022-08-08T01:23:07.791Z,5.50
2022-08-08T01:25:54.202Z,4.28
2022-08-08T01:28:51.422Z,4.10
2022-08-08T01:32:13.850Z,4.08
2022-08-08T01:34:35.615Z,4.55
2022-08-08T01:37:57.512Z,4.10
2022-08-08T01:40:59.511Z,3.80
2022-08-08T01:43:55.877Z,4.22
2022-08-08T01:48:14.034Z,3.95
2022-08-08T01:50:03.978Z,3.92
2022-08-08T01:55:14.752Z,4.17
2022-08-08T01:56:27.388Z,3.83
2022-08-08T01:59:02.676Z,4.17
2022-08-08T02:02:07.364Z,4.12
2022-08-08T02:04:59.066Z,3.90
2022-08-08T02:08:02.181Z,4.15
2022-08-08T02:11:00.903Z,4.15
2022-08-08T02:13:55.579Z,4.10
2022-08-08T02:17:00.566Z,4.45
2022-08-08T02:20:07.611Z,4.25
2022-08-08T02:22:52.925Z,3.83
2022-08-08T02:25:52.138Z,4.37
2022-08-08T02:28:51.632Z,4.40
2022-08-08T02:31:58.281Z,4.83
2022-08-08T02:34:32.781Z,5.08
2022-08-08T02:37:52.306Z,5.37
2022-08-08T02:40:33.363Z,4.58
2022-08-08T02:44:37.958Z,4.75
2022-08-08T02:46:30.020Z,4.45
2022-08-08T02:49:51.201Z,3.95
2022-08-08T02:52:34.953Z,4.05
2022-08-08T02:55:45.325Z,4.65
2022-08-08T02:58:39.411Z,4.08
2022-08-08T03:01:51.697Z,4.03
2022-08-08T03:05:10.569Z,4.65
2022-08-08T03:08:13.871Z,4.37
2022-08-08T03:12:02.118Z,4.60
2022-08-08T03:15:59.452Z,3.87
2022-08-08T03:17:39.792Z,4.62
2022-08-08T03:20:13.702Z,4.60
2022-08-08T03:22:56.748Z,4.28
2022-08-08T03:25:34.102Z,4.30
2022-08-08T03:28:11.078Z,4.17
2022-08-08T03:30:49.023Z,4.05
2022-08-08T03:33:55.161Z,4.08
2022-08-08T03:35:59.256Z,4.70
2022-08-08T03:38:54.010Z,3.72
2022-08-08T03:41:22.901Z,4.10
2022-08-08T03:43:41.610Z,4.15
2022-08-08T03:46:16.186Z,4.62
2022-08-08T03:49:54.962Z,3.70
2022-08-08T03:51:40.301Z,3.83
2022-08-08T03:54:09.795Z,3.80
2022-08-08T03:56:46.400Z,4.42
2022-08-08T03:59:22.665Z,4.30
2022-08-08T04:02:31.680Z,3.85
2022-08-08T04:04:30.652Z,3.65
2022-08-08T04:07:05.314Z,3.72
2022-08-08T04:10:04.999Z,3.90
2022-08-08T04:12:16.147Z,4.33
2022-08-08T04:14:51.039Z,4.12
2022-08-08T04:17:45.727Z,4.40
2022-08-08T04:19:59.311Z,3.85
2022-08-08T04:22:35.259Z,4.62
2022-08-08T04:25:15.550Z,5.25
2022-08-08T04:28:34.441Z,4.45
2022-08-08T04:30:20.411Z,4.40
2022-08-08T04:32:57.066Z,4.30
2022-08-08T04:35:39.373Z,5.08
2022-08-08T04:38:06.919Z,5.28
2022-08-08T04:40:51.716Z,5.17
2022-08-08T04:43:17.861Z,4.72
2022-08-08T04:45:54.026Z,5.40
2022-08-08T04:48:28.358Z,6.42
2022-08-08T04:51:03.835Z,8.23
2022-08-08T04:54:27.174Z,7.25
2022-08-08T04:56:14.099Z,6.00
2022-08-08T04:58:48.442Z,6.78
2022-08-08T05:01:22.237Z,7.30
2022-08-08T05:04:07.723Z,6.30
2022-08-08T05:06:30.665Z,5.75
2022-08-08T05:09:06.067Z,5.80
2022-08-08T05:11:40.786Z,5.75
2022-08-08T05:14:15.503Z,5.67
2022-08-08T05:17:00.380Z,5.90
2022-08-08T05:20:11.421Z,5.45
2022-08-08T05:22:01.616Z,7.40
2022-08-08T05:24:37.744Z,6.62
2022-08-08T05:27:11.848Z,6.72
2022-08-08T05:29:45.375Z,8.53
2022-08-08T05:32:19.994Z,6.78
2022-08-08T05:34:55.502Z,7.17
2022-08-08T05:37:51.870Z,6.60
2022-08-08T05:40:07.121Z,6.08
2022-08-08T05:42:45.442Z,5.67
2022-08-08T05:45:25.465Z,6.37
2022-08-08T05:48:00.437Z,6.00
2022-08-08T05:50:29.370Z,5.67
2022-08-08T05:53:54.220Z,5.40
2022-08-08T05:56:11.698Z,5.95
2022-08-08T05:58:17.699Z,5.87
2022-08-08T06:00:56.975Z,6.08
2022-08-08T06:03:29.499Z,5.80
2022-08-08T06:06:07.461Z,5.45
2022-08-08T06:09:00.230Z,5.72
2022-08-08T06:11:37.166Z,5.67
2022-08-08T06:14:12.898Z,6.00
2022-08-08T06:16:45.204Z,5.90
2022-08-08T06:19:24.262Z,7.05
2022-08-08T06:21:58.292Z,5.85
2022-08-08T06:24:36.058Z,7.12
2022-08-08T06:27:11.080Z,7.10
2022-08-08T06:29:59.996Z,7.62
2022-08-08T06:32:31.397Z,8.08
2022-08-08T06:36:04.645Z,8.15
2022-08-08T06:37:56.050Z,8.48
2022-08-08T06:40:36.949Z,8.75
2022-08-08T06:43:16.289Z,9.73
2022-08-08T06:45:53.195Z,8.53
2022-08-08T06:48:27.481Z,8.00
2022-08-08T06:51:05.541Z,9.38
2022-08-08T06:53:39.235Z,8.65
2022-08-08T06:56:11.892Z,7.78
2022-08-08T06:58:46.475Z,7.40
2022-08-08T07:02:16.414Z,8.00
2022-08-08T07:04:38.021Z,8.13
2022-08-08T07:06:40.798Z,7.40
2022-08-08T07:09:21.088Z,6.75
2022-08-08T07:11:55.031Z,7.10
2022-08-08T07:14:51.457Z,6.08
2022-08-08T07:17:40.086Z,6.37
2022-08-08T07:20:07.894Z,6.53
2022-08-08T07:23:05.226Z,6.67
2022-08-08T07:25:44.116Z,6.62
2022-08-08T07:28:20.158Z,6.72
2022-08-08T07:30:53.981Z,6.37
2022-08-08T07:33:27.241Z,7.43
2022-08-08T07:36:05.543Z,6.53
2022-08-08T07:38:40.603Z,6.72
2022-08-08T07:41:23.538Z,7.05
2022-08-08T07:43:51.381Z,7.10
2022-08-08T07:46:30.982Z,6.97
2022-08-08T07:49:01.769Z,6.50
2022-08-08T07:51:53.217Z,7.72
2022-08-08T07:54:26.657Z,7.20
2022-08-08T07:57:36.476Z,9.53
2022-08-08T08:00:16.630Z,7.42
2022-08-08T08:03:20.536Z,8.05
2022-08-08T08:05:53.204Z,7.08
2022-08-08T08:08:32.541Z,8.20
2022-08-08T08:11:08.486Z,9.00
2022-08-08T08:14:07.967Z,8.15
2022-08-08T08:16:33.768Z,8.40
2022-08-08T08:19:12.788Z,7.58
2022-08-08T08:21:57.369Z,8.40
2022-08-08T08:24:32.314Z,8.25
2022-08-08T08:27:04.033Z,7.90
2022-08-08T08:29:38.505Z,7.62
2022-08-08T08:32:12.380Z,8.18
2022-08-08T08:34:48.574Z,7.92
2022-08-08T08:37:21.850Z,8.30
2022-08-08T08:40:01.064Z,7.45
2022-08-08T08:42:36.235Z,9.70
2022-08-08T08:45:20.929Z,7.17
2022-08-08T08:47:46.521Z,7.83
2022-08-08T08:50:32.641Z,7.78
2022-08-08T08:52:59.794Z,8.18
2022-08-08T08:55:31.730Z,7.75
2022-08-08T08:58:08.156Z,7.20
2022-08-08T09:01:05.371Z,6.08
2022-08-08T09:03:16.611Z,6.30
2022-08-08T09:05:54.201Z,6.47
2022-08-08T09:08:29.766Z,6.47
2022-08-08T09:11:04.496Z,5.08
2022-08-08T09:13:40.212Z,5.30
2022-08-08T09:16:13.772Z,5.65
2022-08-08T09:18:47.353Z,5.95
2022-08-08T09:22:02.441Z,6.83
2022-08-08T09:23:57.027Z,7.50
2022-08-08T09:27:00.702Z,5.90
2022-08-08T09:30:01.906Z,4.28
2022-08-08T09:33:53.760Z,4.30
2022-08-08T09:35:32.057Z,4.00
2022-08-08T09:38:17.550Z,6.20
2022-08-08T09:40:46.546Z,5.42
2022-08-08T09:43:41.151Z,5.08
2022-08-08T09:46:11.223Z,4.55
2022-08-08T09:48:46.602Z,4.40
2022-08-08T09:51:23.177Z,5.08
2022-08-08T09:54:08.402Z,6.20
2022-08-08T09:56:38.928Z,5.62
2022-08-08T10:00:02.028Z,6.97
2022-08-08T10:01:59.584Z,6.10
2022-08-08T10:04:38.499Z,4.83
2022-08-08T10:06:59.649Z,4.28
2022-08-08T10:10:00.912Z,3.95
2022-08-08T10:12:26.624Z,3.90
2022-08-08T10:14:46.451Z,3.92
2022-08-08T10:17:56.558Z,4.53
2022-08-08T10:20:03.838Z,3.33
2022-08-08T10:22:37.898Z,3.47
2022-08-08T10:25:15.761Z,3.22
2022-08-08T10:27:53.446Z,2.80
2022-08-08T10:31:00.807Z,3.45
2022-08-08T10:33:03.958Z,2.98
2022-08-08T10:36:08.539Z,2.80
2022-08-08T10:38:16.559Z,2.83
2022-08-08T10:40:55.247Z,2.75
2022-08-08T10:43:40.470Z,2.83
2022-08-08T10:46:30.279Z,3.00
2022-08-08T10:49:01.654Z,2.20
2022-08-08T10:51:47.447Z,2.27
2022-08-08T10:54:25.182Z,2.55
2022-08-08T10:57:05.536Z,3.22
2022-08-08T10:59:40.972Z,2.55
2022-08-08T11:02:14.427Z,3.10
2022-08-08T11:04:53.001Z,2.40
2022-08-08T11:08:30.984Z,2.42
2022-08-08T11:10:12.454Z,2.10
2022-08-08T11:15:52.278Z,1.90
2022-08-08T11:18:11.456Z,3.37
2022-08-08T11:20:44.511Z,1.87
2022-08-08T11:23:19.830Z,1.65
2022-08-08T11:25:57.395Z,1.80
2022-08-08T11:28:31.739Z,2.15
2022-08-08T11:31:09.523Z,2.00
2022-08-08T11:33:51.180Z,2.12
2022-08-08T11:36:16.224Z,2.20
2022-08-08T11:41:28.069Z,2.00
2022-08-08T11:44:01.320Z,1.90
2022-08-08T11:46:35.588Z,2.67
2022-08-08T11:49:14.237Z,1.90
2022-08-08T11:51:50.045Z,1.92
2022-08-08T11:54:44.937Z,2.27
2022-08-08T11:57:17.374Z,2.00
2022-08-08T12:00:05.631Z,2.72
2022-08-08T12:02:58.756Z,2.37
2022-08-08T12:05:41.755Z,2.25
2022-08-08T12:08:16.938Z,1.62
2022-08-08T12:10:52.952Z,2.33
2022-08-08T12:13:37.909Z,2.37
2022-08-08T12:16:15.722Z,2.22
2022-08-08T12:18:57.847Z,2.02
2022-08-08T12:21:58.726Z,2.10
2022-08-08T12:24:17.849Z,3.00
2022-08-08T12:26:56.982Z,2.10
2022-08-08T12:29:42.143Z,2.12
2022-08-08T12:32:22.232Z,1.95
2022-08-08T12:35:13.680Z,2.08
2022-08-08T12:37:40.691Z,2.50
2022-08-08T12:40:22.868Z,2.02
2022-08-08T12:42:53.602Z,2.60
2022-08-08T12:48:18.051Z,1.98
2022-08-08T12:50:46.561Z,2.10
2022-08-08T12:53:30.115Z,2.10
2022-08-08T12:56:17.948Z,2.52
2022-08-08T12:58:51.378Z,2.98
2022-08-08T13:01:37.779Z,2.10
2022-08-08T13:04:25.210Z,1.98
2022-08-08T13:07:12.055Z,2.80
2022-08-08T13:10:04.029Z,2.58
2022-08-08T13:12:47.019Z,2.40
2022-08-08T13:15:20.419Z,4.30
2022-08-08T13:17:53.915Z,2.60
2022-08-08T13:20:28.175Z,8.35
2022-08-08T13:23:31.349Z,4.87
2022-08-08T13:25:36.851Z,4.35
2022-08-08T13:28:10.027Z,3.40
2022-08-08T13:30:46.401Z,3.60
2022-08-08T13:33:21.156Z,2.47
2022-08-08T13:35:56.666Z,2.55
2022-08-08T13:38:31.967Z,2.27
2022-08-08T13:41:05.378Z,2.50
2022-08-08T13:46:26.747Z,2.05
2022-08-08T13:49:12.077Z,2.67
2022-08-08T13:51:37.487Z,5.37
2022-08-08T13:54:01.161Z,3.45
2022-08-08T13:59:12.567Z,3.17
2022-08-08T14:01:57.161Z,2.20
2022-08-08T14:04:28.572Z,2.12
2022-08-08T14:07:04.505Z,2.12
2022-08-08T14:10:04.756Z,5.20
2022-08-08T14:12:17.619Z,5.37
2022-08-08T14:14:50.699Z,3.70
2022-08-08T14:17:57.394Z,3.05
2022-08-08T14:20:07.177Z,2.83
2022-08-08T14:22:43.067Z,2.70
2022-08-08T14:25:17.866Z,3.08
2022-08-08T14:28:00.148Z,2.80
2022-08-08T14:30:30.870Z,4.00
2022-08-08T14:33:12.928Z,4.78
2022-08-08T14:35:40.362Z,4.87
2022-08-08T14:38:34.234Z,5.17
2022-08-08T14:40:49.635Z,4.28
2022-08-08T14:43:31.186Z,2.40
2022-08-08T14:46:09.504Z,1.92
2022-08-08T14:48:56.958Z,2.45
2022-08-08T14:51:25.498Z,3.58
2022-08-08T14:54:01.742Z,2.47
2022-08-08T14:56:36.398Z,2.80
2022-08-08T14:59:31.654Z,2.08
2022-08-08T15:01:49.865Z,2.00
2022-08-08T15:04:23.601Z,2.90
2022-08-08T15:06:58.662Z,1.90
2022-08-08T15:09:33.665Z,2.30
2022-08-08T15:12:08.727Z,1.80
2022-08-08T15:14:41.924Z,1.95
2022-08-08T15:17:15.011Z,2.02
2022-08-08T15:22:33.057Z,2.27
2022-08-08T15:24:55.141Z,3.77
2022-08-08T15:28:05.117Z,2.10
2022-08-08T15:30:04.837Z,2.30
2022-08-08T15:32:41.641Z,2.02
2022-08-08T15:35:18.067Z,2.83
2022-08-08T15:37:53.338Z,3.37
2022-08-08T15:40:28.552Z,3.65
2022-08-08T15:43:03.933Z,5.75
2022-08-08T15:45:39.162Z,5.42
2022-08-08T15:48:16.022Z,7.05
2022-08-08T15:51:03.124Z,2.62
2022-08-08T15:53:40.547Z,3.05
2022-08-08T15:56:13.104Z,2.92
2022-08-08T15:58:48.864Z,2.55
2022-08-08T16:01:22.521Z,2.52
2022-08-08T16:03:55.163Z,2.30
2022-08-08T16:06:30.954Z,2.62
2022-08-08T16:13:09.304Z,2.75
2022-08-08T16:13:10.728Z,3.05
2022-08-08T16:14:15.730Z,5.65
2022-08-08T16:16:50.505Z,4.08
2022-08-08T16:19:24.197Z,8.45
2022-08-08T16:21:57.591Z,6.67
2022-08-08T16:24:30.560Z,4.50
2022-08-08T16:27:03.466Z,4.17
2022-08-08T16:30:08.433Z,4.20
2022-08-08T16:32:21.901Z,3.80
2022-08-08T16:34:48.155Z,3.67
2022-08-08T16:37:21.043Z,4.60
2022-08-08T16:40:02.059Z,3.22
2022-08-08T16:42:28.976Z,3.33
2022-08-08T16:45:11.564Z,4.10
2022-08-08T16:47:42.260Z,3.77
2022-08-08T16:50:20.191Z,6.53
2022-08-08T16:55:01.831Z,5.83
2022-08-08T16:55:53.446Z,4.67
2022-08-08T16:58:14.527Z,5.08
2022-08-08T17:00:36.810Z,3.98
2022-08-08T17:03:10.107Z,4.40
2022-08-08T17:05:44.929Z,4.30
2022-08-08T17:08:18.444Z,4.95
2022-08-08T17:10:57.498Z,5.97
2022-08-08T17:13:49.832Z,8.28
2022-08-08T17:16:05.665Z,5.12
2022-08-08T17:18:40.221Z,4.92
2022-08-08T17:21:13.738Z,4.80
2022-08-08T17:24:00.698Z,4.20
2022-08-08T17:26:26.715Z,4.40
2022-08-08T17:28:55.556Z,4.53
2022-08-08T17:31:44.555Z,5.00
2022-08-08T17:34:52.982Z,5.15
2022-08-08T17:36:55.203Z,4.12
2022-08-08T17:39:45.854Z,5.05
2022-08-08T17:41:58.602Z,5.10
2022-08-08T17:44:26.923Z,5.25
2022-08-08T17:46:59.470Z,5.35
2022-08-08T17:49:38.034Z,5.60
2022-08-08T17:52:08.652Z,6.67
2022-08-08T17:54:42.331Z,6.87
2022-08-08T17:57:17.200Z,6.72
2022-08-08T17:59:51.873Z,6.30
2022-08-08T18:02:29.227Z,6.53
2022-08-08T18:05:04.813Z,6.67
2022-08-08T18:08:02.690Z,7.53
2022-08-08T18:10:10.744Z,7.03
2022-08-08T18:12:46.133Z,5.97
2022-08-08T18:15:20.835Z,6.67
2022-08-08T18:18:27.219Z,6.47
2022-08-08T18:20:43.909Z,4.83
2022-08-08T18:23:04.447Z,5.20
2022-08-08T18:25:37.766Z,5.00
2022-08-08T18:28:13.010Z,4.78
2022-08-08T18:30:46.999Z,4.12
2022-08-08T18:34:10.342Z,4.53
2022-08-08T18:36:03.059Z,4.10
2022-08-08T18:38:36.360Z,4.40
2022-08-08T18:41:07.096Z,4.30
2022-08-08T18:43:43.076Z,3.77
2022-08-08T18:46:55.862Z,3.52
2022-08-08T18:48:51.118Z,3.98
2022-08-08T18:51:48.742Z,3.52
2022-08-08T18:54:02.809Z,4.87
2022-08-08T18:56:35.622Z,3.58
2022-08-08T18:59:08.492Z,3.65
2022-08-08T19:02:28.095Z,3.35
2022-08-08T19:04:16.107Z,3.83
2022-08-08T19:06:49.569Z,3.83
2022-08-08T19:09:23.346Z,3.80
2022-08-08T19:11:57.956Z,3.58
2022-08-08T19:14:31.047Z,3.90
2022-08-08T19:17:05.798Z,2.98
2022-08-08T19:19:44.025Z,3.35
2022-08-08T19:22:14.302Z,3.55
2022-08-08T19:25:05.067Z,3.85
2022-08-08T19:27:56.393Z,4.12
2022-08-08T19:29:59.457Z,3.40
2022-08-08T19:32:32.675Z,3.77
2022-08-08T19:35:08.843Z,3.20
2022-08-08T19:37:48.540Z,3.30
2022-08-08T19:40:16.706Z,3.52
2022-08-08T19:42:51.700Z,3.45
2022-08-08T19:45:58.627Z,3.27
2022-08-08T19:48:00.808Z,3.30
2022-08-08T19:50:34.946Z,3.65
2022-08-08T19:53:50.792Z,3.55
2022-08-08T19:55:43.030Z,3.85
2022-08-08T19:58:17.501Z,3.80
2022-08-08T20:00:50.577Z,3.92
2022-08-08T20:04:01.011Z,3.92
2022-08-08T20:06:15.483Z,4.15
2022-08-08T20:08:34.762Z,3.77
2022-08-08T20:11:10.139Z,3.60
2022-08-08T20:14:32.884Z,3.77
2022-08-08T20:16:19.677Z,3.70
2022-08-08T20:18:53.892Z,3.95
2022-08-08T20:21:27.341Z,4.12
2022-08-08T20:24:01.646Z,5.58
2022-08-08T20:26:38.211Z,9.35
2022-08-08T20:29:11.412Z,32.50
2022-08-08T20:32:02.527Z,44.83
2022-08-08T20:34:28.702Z,60.73
2022-08-08T20:36:55.141Z,44.77
2022-08-08T20:39:39.587Z,50.38
2022-08-08T20:42:03.080Z,46.25
2022-08-08T20:44:37.899Z,50.20
2022-08-08T20:47:23.085Z,50.00
2022-08-08T20:49:46.855Z,53.25
2022-08-08T20:52:19.934Z,52.53
2022-08-08T20:57:27.976Z,29.07
2022-08-08T21:00:01.165Z,18.35
2022-08-08T21:02:34.424Z,16.00
2022-08-08T21:05:07.643Z,9.97
2022-08-08T21:08:07.835Z,10.43
2022-08-08T21:10:16.608Z,7.85
2022-08-08T21:12:52.938Z,7.37
2022-08-08T21:16:05.938Z,6.50
2022-08-08T21:18:00.450Z,6.58
2022-08-08T21:20:34.898Z,5.95
2022-08-08T21:23:09.643Z,6.22
2022-08-08T21:25:44.149Z,5.80
2022-08-08T21:28:33.412Z,5.08
2022-08-08T21:30:53.467Z,5.67
2022-08-08T21:33:26.542Z,5.00
2022-08-08T21:36:14.350Z,5.10
2022-08-08T21:38:36.673Z,4.50
2022-08-08T21:41:10.234Z,4.87
2022-08-08T21:43:44.712Z,4.62
2022-08-08T21:48:07.000Z,5.00
2022-08-08T21:48:55.740Z,5.47
2022-08-08T21:54:31.998Z,5.33
2022-08-08T21:54:33.385Z,5.60
2022-08-08T21:56:43.343Z,4.90
2022-08-08T21:59:15.234Z,5.85
2022-08-08T22:01:52.374Z,5.67
2022-08-08T22:04:24.520Z,6.00
2022-08-08T22:06:58.316Z,5.50
2022-08-08T22:09:41.001Z,5.15
2022-08-08T22:12:09.663Z,4.65
2022-08-08T22:14:42.581Z,6.20
2022-08-08T22:17:17.169Z,5.58
2022-08-08T22:20:12.379Z,5.53
2022-08-08T22:22:29.156Z,6.17
2022-08-08T22:24:59.420Z,5.85
2022-08-08T22:27:56.026Z,5.78
2022-08-08T22:30:13.578Z,5.87
2022-08-08T22:32:49.204Z,5.80
2022-08-08T22:35:23.748Z,6.20
2022-08-08T22:37:56.950Z,6.15
2022-08-08T22:40:32.263Z,6.80
2022-08-08T22:45:38.512Z,6.22
2022-08-08T22:48:11.969Z,6.78
2022-08-08T22:50:46.479Z,7.28
2022-08-08T22:54:31.666Z,7.22
2022-08-08T22:55:57.676Z,6.45
2022-08-08T22:58:33.258Z,6.50
2022-08-08T23:01:30.133Z,6.65
2022-08-08T23:03:53.385Z,7.05
2022-08-08T23:06:18.829Z,7.25
2022-08-08T23:08:55.612Z,6.78
2022-08-08T23:12:17.277Z,6.47
2022-08-08T23:14:05.175Z,6.08
2022-08-08T23:16:43.872Z,6.55
2022-08-08T23:19:12.579Z,5.90
2022-08-08T23:21:47.391Z,6.12
2022-08-08T23:24:22.513Z,6.30
2022-08-08T23:26:56.417Z,6.40
2022-08-08T23:29:31.240Z,5.60
2022-08-08T23:32:05.442Z,6.28
2022-08-08T23:37:11.612Z,6.05
2022-08-08T23:39:55.082Z,5.90
2022-08-08T23:42:21.353Z,5.87
2022-08-08T23:44:53.621Z,6.60
2022-08-08T23:49:08.770Z,6.42
2022-08-08T23:50:05.325Z,6.55
2022-08-08T23:52:36.034Z,7.28
2022-08-08T23:55:19.580Z,6.25
2022-08-08T23:57:52.889Z,6.28
